sensor_id;sensor_type;location;lat;lon;timestamp;temperature;humidity
44111;DHT22;29774;52.664;5.074;2023-05-20T00:00:32;11.50;80.60
44111;DHT22;29774;52.664;5.074;2023-05-20T00:02:58;11.50;80.80
44111;DHT22;29774;52.664;5.074;2023-05-20T00:05:25;11.50;81.00
44111;DHT22;29774;52.664;5.074;2023-05-20T00:07:50;11.50;80.90
44111;DHT22;29774;52.664;5.074;2023-05-20T00:10:16;11.40;81.10
44111;DHT22;29774;52.664;5.074;2023-05-20T00:12:42;11.40;81.30
44111;DHT22;29774;52.664;5.074;2023-05-20T00:15:08;11.40;81.50
44111;DHT22;29774;52.664;5.074;2023-05-20T00:17:33;11.30;81.60
44111;DHT22;29774;52.664;5.074;2023-05-20T00:19:59;11.40;81.80
44111;DHT22;29774;52.664;5.074;2023-05-20T00:22:25;11.30;81.70
44111;DHT22;29774;52.664;5.074;2023-05-20T00:24:50;11.30;82.00
44111;DHT22;29774;52.664;5.074;2023-05-20T00:27:16;11.30;82.10
44111;DHT22;29774;52.664;5.074;2023-05-20T00:29:42;11.30;82.10
44111;DHT22;29774;52.664;5.074;2023-05-20T00:32:07;11.30;82.20
44111;DHT22;29774;52.664;5.074;2023-05-20T00:34:33;11.30;82.40
44111;DHT22;29774;52.664;5.074;2023-05-20T00:36:58;11.30;82.40
44111;DHT22;29774;52.664;5.074;2023-05-20T00:39:24;11.20;82.50
44111;DHT22;29774;52.664;5.074;2023-05-20T00:41:50;11.20;82.70
44111;DHT22;29774;52.664;5.074;2023-05-20T00:44:15;11.20;82.80
44111;DHT22;29774;52.664;5.074;2023-05-20T00:46:43;11.20;82.90
44111;DHT22;29774;52.664;5.074;2023-05-20T00:49:09;11.20;83.00
44111;DHT22;29774;52.664;5.074;2023-05-20T00:51:35;11.20;83.00
44111;DHT22;29774;52.664;5.074;2023-05-20T00:54:01;11.20;83.00
44111;DHT22;29774;52.664;5.074;2023-05-20T00:56:27;11.20;83.20
44111;DHT22;29774;52.664;5.074;2023-05-20T00:58:54;11.20;83.10
44111;DHT22;29774;52.664;5.074;2023-05-20T01:01:20;11.20;82.90
44111;DHT22;29774;52.664;5.074;2023-05-20T01:03:46;11.20;83.00
44111;DHT22;29774;52.664;5.074;2023-05-20T01:06:13;11.20;83.00
44111;DHT22;29774;52.664;5.074;2023-05-20T01:08:38;11.10;83.00
44111;DHT22;29774;52.664;5.074;2023-05-20T01:11:11;11.00;83.10
44111;DHT22;29774;52.664;5.074;2023-05-20T01:13:52;11.00;83.10
44111;DHT22;29774;52.664;5.074;2023-05-20T01:16:19;11.00;83.30
44111;DHT22;29774;52.664;5.074;2023-05-20T01:18:47;11.10;83.20
44111;DHT22;29774;52.664;5.074;2023-05-20T01:21:14;11.10;83.20
44111;DHT22;29774;52.664;5.074;2023-05-20T01:23:41;11.00;83.20
44111;DHT22;29774;52.664;5.074;2023-05-20T01:26:08;11.00;83.30
44111;DHT22;29774;52.664;5.074;2023-05-20T01:28:36;11.10;83.40
44111;DHT22;29774;52.664;5.074;2023-05-20T01:31:05;11.00;83.40
44111;DHT22;29774;52.664;5.074;2023-05-20T01:33:35;11.00;83.40
44111;DHT22;29774;52.664;5.074;2023-05-20T01:36:02;11.00;83.40
44111;DHT22;29774;52.664;5.074;2023-05-20T01:38:28;11.00;83.50
44111;DHT22;29774;52.664;5.074;2023-05-20T01:40:56;11.00;83.60
44111;DHT22;29774;52.664;5.074;2023-05-20T01:43:24;11.00;83.40
44111;DHT22;29774;52.664;5.074;2023-05-20T01:45:50;10.90;83.60
44111;DHT22;29774;52.664;5.074;2023-05-20T01:48:15;11.00;83.60
44111;DHT22;29774;52.664;5.074;2023-05-20T01:50:41;10.90;83.60
44111;DHT22;29774;52.664;5.074;2023-05-20T01:53:07;10.90;83.60
44111;DHT22;29774;52.664;5.074;2023-05-20T01:55:34;11.00;83.70
44111;DHT22;29774;52.664;5.074;2023-05-20T01:58:00;10.90;83.60
44111;DHT22;29774;52.664;5.074;2023-05-20T02:00:26;10.90;83.60
44111;DHT22;29774;52.664;5.074;2023-05-20T02:02:51;10.90;83.70
44111;DHT22;29774;52.664;5.074;2023-05-20T02:05:17;10.80;83.70
44111;DHT22;29774;52.664;5.074;2023-05-20T02:07:43;10.80;83.80
44111;DHT22;29774;52.664;5.074;2023-05-20T02:10:09;10.80;83.90
44111;DHT22;29774;52.664;5.074;2023-05-20T02:12:34;10.80;84.10
44111;DHT22;29774;52.664;5.074;2023-05-20T02:15:00;10.90;84.00
44111;DHT22;29774;52.664;5.074;2023-05-20T02:17:25;10.90;84.10
44111;DHT22;29774;52.664;5.074;2023-05-20T02:19:51;10.80;84.00
44111;DHT22;29774;52.664;5.074;2023-05-20T02:22:17;10.80;84.10
44111;DHT22;29774;52.664;5.074;2023-05-20T02:24:43;10.80;84.20
44111;DHT22;29774;52.664;5.074;2023-05-20T02:27:08;10.70;84.20
44111;DHT22;29774;52.664;5.074;2023-05-20T02:29:34;10.70;84.30
44111;DHT22;29774;52.664;5.074;2023-05-20T02:31:59;10.70;84.30
44111;DHT22;29774;52.664;5.074;2023-05-20T02:34:26;10.70;84.50
44111;DHT22;29774;52.664;5.074;2023-05-20T02:36:52;10.70;84.50
44111;DHT22;29774;52.664;5.074;2023-05-20T02:39:17;10.70;84.40
44111;DHT22;29774;52.664;5.074;2023-05-20T02:41:43;10.70;84.50
44111;DHT22;29774;52.664;5.074;2023-05-20T02:44:08;10.70;84.50
44111;DHT22;29774;52.664;5.074;2023-05-20T02:46:34;10.70;84.70
44111;DHT22;29774;52.664;5.074;2023-05-20T02:49:00;10.70;84.70
44111;DHT22;29774;52.664;5.074;2023-05-20T02:51:25;10.60;84.80
44111;DHT22;29774;52.664;5.074;2023-05-20T02:53:51;10.60;84.80
44111;DHT22;29774;52.664;5.074;2023-05-20T02:56:17;10.60;84.90
44111;DHT22;29774;52.664;5.074;2023-05-20T02:58:46;10.50;85.00
44111;DHT22;29774;52.664;5.074;2023-05-20T03:01:11;10.60;85.30
44111;DHT22;29774;52.664;5.074;2023-05-20T03:03:37;10.50;85.30
44111;DHT22;29774;52.664;5.074;2023-05-20T03:06:05;10.50;85.40
44111;DHT22;29774;52.664;5.074;2023-05-20T03:08:31;10.50;85.50
44111;DHT22;29774;52.664;5.074;2023-05-20T03:10:58;10.50;85.60
44111;DHT22;29774;52.664;5.074;2023-05-20T03:13:24;10.60;85.50
44111;DHT22;29774;52.664;5.074;2023-05-20T03:15:50;10.50;85.50
44111;DHT22;29774;52.664;5.074;2023-05-20T03:18:15;10.50;85.40
44111;DHT22;29774;52.664;5.074;2023-05-20T03:20:41;10.50;85.50
44111;DHT22;29774;52.664;5.074;2023-05-20T03:23:08;10.50;85.40
44111;DHT22;29774;52.664;5.074;2023-05-20T03:25:34;10.50;85.50
44111;DHT22;29774;52.664;5.074;2023-05-20T03:27:59;10.50;85.60
44111;DHT22;29774;52.664;5.074;2023-05-20T03:30:26;10.50;85.60
44111;DHT22;29774;52.664;5.074;2023-05-20T03:32:55;10.50;85.60
44111;DHT22;29774;52.664;5.074;2023-05-20T03:35:24;10.50;85.70
44111;DHT22;29774;52.664;5.074;2023-05-20T03:37:50;10.40;85.70
44111;DHT22;29774;52.664;5.074;2023-05-20T03:40:19;10.40;85.60
44111;DHT22;29774;52.664;5.074;2023-05-20T03:42:47;10.40;85.70
44111;DHT22;29774;52.664;5.074;2023-05-20T03:45:15;10.50;85.80
44111;DHT22;29774;52.664;5.074;2023-05-20T03:47:41;10.40;85.60
44111;DHT22;29774;52.664;5.074;2023-05-20T03:50:06;10.40;85.60
44111;DHT22;29774;52.664;5.074;2023-05-20T03:52:32;10.40;85.50
44111;DHT22;29774;52.664;5.074;2023-05-20T03:54:58;10.40;85.40
44111;DHT22;29774;52.664;5.074;2023-05-20T03:57:24;10.40;85.50
44111;DHT22;29774;52.664;5.074;2023-05-20T03:59:50;10.30;85.80
44111;DHT22;29774;52.664;5.074;2023-05-20T04:02:16;10.30;85.90
44111;DHT22;29774;52.664;5.074;2023-05-20T04:04:41;10.40;86.00
44111;DHT22;29774;52.664;5.074;2023-05-20T04:07:08;10.40;86.00
44111;DHT22;29774;52.664;5.074;2023-05-20T04:09:34;10.40;85.90
44111;DHT22;29774;52.664;5.074;2023-05-20T04:12:00;10.40;86.00
44111;DHT22;29774;52.664;5.074;2023-05-20T04:14:26;10.40;86.10
44111;DHT22;29774;52.664;5.074;2023-05-20T04:16:51;10.40;86.10
44111;DHT22;29774;52.664;5.074;2023-05-20T04:19:18;10.40;86.10
44111;DHT22;29774;52.664;5.074;2023-05-20T04:21:44;10.50;86.20
44111;DHT22;29774;52.664;5.074;2023-05-20T04:24:10;10.50;86.10
44111;DHT22;29774;52.664;5.074;2023-05-20T04:26:36;10.50;86.00
44111;DHT22;29774;52.664;5.074;2023-05-20T04:29:02;10.50;86.00
44111;DHT22;29774;52.664;5.074;2023-05-20T04:31:29;10.60;86.10
44111;DHT22;29774;52.664;5.074;2023-05-20T04:33:55;10.60;86.10
44111;DHT22;29774;52.664;5.074;2023-05-20T04:36:21;10.60;86.00
44111;DHT22;29774;52.664;5.074;2023-05-20T04:38:46;10.70;86.00
44111;DHT22;29774;52.664;5.074;2023-05-20T04:41:14;10.70;86.00
44111;DHT22;29774;52.664;5.074;2023-05-20T04:43:40;10.70;85.90
44111;DHT22;29774;52.664;5.074;2023-05-20T04:46:06;10.70;85.80
44111;DHT22;29774;52.664;5.074;2023-05-20T04:48:32;10.80;85.60
44111;DHT22;29774;52.664;5.074;2023-05-20T04:50:58;10.80;85.50
44111;DHT22;29774;52.664;5.074;2023-05-20T04:53:23;10.90;85.20
44111;DHT22;29774;52.664;5.074;2023-05-20T04:55:49;10.90;85.00
44111;DHT22;29774;52.664;5.074;2023-05-20T04:58:19;11.00;85.10
44111;DHT22;29774;52.664;5.074;2023-05-20T05:00:44;11.00;85.10
44111;DHT22;29774;52.664;5.074;2023-05-20T05:03:11;11.10;85.10
44111;DHT22;29774;52.664;5.074;2023-05-20T05:05:37;11.10;85.00
44111;DHT22;29774;52.664;5.074;2023-05-20T05:08:04;11.20;85.00
44111;DHT22;29774;52.664;5.074;2023-05-20T05:10:30;11.30;85.00
44111;DHT22;29774;52.664;5.074;2023-05-20T05:12:56;11.30;84.70
44111;DHT22;29774;52.664;5.074;2023-05-20T05:15:22;11.50;84.60
44111;DHT22;29774;52.664;5.074;2023-05-20T05:17:48;11.50;84.50
44111;DHT22;29774;52.664;5.074;2023-05-20T05:20:14;11.60;84.10
44111;DHT22;29774;52.664;5.074;2023-05-20T05:22:39;11.70;83.80
44111;DHT22;29774;52.664;5.074;2023-05-20T05:25:07;11.70;83.50
44111;DHT22;29774;52.664;5.074;2023-05-20T05:27:33;11.80;83.20
44111;DHT22;29774;52.664;5.074;2023-05-20T05:30:00;11.80;82.80
44111;DHT22;29774;52.664;5.074;2023-05-20T05:32:26;11.90;83.00
44111;DHT22;29774;52.664;5.074;2023-05-20T05:34:51;12.10;82.80
44111;DHT22;29774;52.664;5.074;2023-05-20T05:37:17;12.20;81.30
44111;DHT22;29774;52.664;5.074;2023-05-20T05:39:42;12.30;81.00
44111;DHT22;29774;52.664;5.074;2023-05-20T05:42:08;12.30;80.50
44111;DHT22;29774;52.664;5.074;2023-05-20T05:44:34;12.40;80.10
44111;DHT22;29774;52.664;5.074;2023-05-20T05:46:59;12.30;79.70
44111;DHT22;29774;52.664;5.074;2023-05-20T05:49:25;12.40;79.70
44111;DHT22;29774;52.664;5.074;2023-05-20T05:51:51;12.60;79.80
44111;DHT22;29774;52.664;5.074;2023-05-20T05:54:16;12.80;79.30
44111;DHT22;29774;52.664;5.074;2023-05-20T05:56:42;13.10;78.30
44111;DHT22;29774;52.664;5.074;2023-05-20T05:59:07;13.40;77.60
44111;DHT22;29774;52.664;5.074;2023-05-20T06:01:33;13.50;76.50
44111;DHT22;29774;52.664;5.074;2023-05-20T06:03:59;13.70;75.30
44111;DHT22;29774;52.664;5.074;2023-05-20T06:06:25;13.90;74.30
44111;DHT22;29774;52.664;5.074;2023-05-20T06:08:51;14.00;74.10
44111;DHT22;29774;52.664;5.074;2023-05-20T06:11:16;14.20;73.30
44111;DHT22;29774;52.664;5.074;2023-05-20T06:13:42;14.30;72.80
44111;DHT22;29774;52.664;5.074;2023-05-20T06:16:07;14.60;71.90
44111;DHT22;29774;52.664;5.074;2023-05-20T06:18:33;14.70;71.50
44111;DHT22;29774;52.664;5.074;2023-05-20T06:20:59;14.80;71.50
44111;DHT22;29774;52.664;5.074;2023-05-20T06:23:25;14.80;71.20
44111;DHT22;29774;52.664;5.074;2023-05-20T06:25:51;15.00;70.50
44111;DHT22;29774;52.664;5.074;2023-05-20T06:28:16;15.10;70.00
44111;DHT22;29774;52.664;5.074;2023-05-20T06:30:42;15.10;70.40
44111;DHT22;29774;52.664;5.074;2023-05-20T06:33:08;15.20;70.00
44111;DHT22;29774;52.664;5.074;2023-05-20T06:35:34;15.20;69.70
44111;DHT22;29774;52.664;5.074;2023-05-20T06:38:00;15.20;69.80
44111;DHT22;29774;52.664;5.074;2023-05-20T06:40:29;15.40;69.80
44111;DHT22;29774;52.664;5.074;2023-05-20T06:42:55;15.70;68.50
44111;DHT22;29774;52.664;5.074;2023-05-20T06:45:20;15.60;68.20
44111;DHT22;29774;52.664;5.074;2023-05-20T06:47:46;15.40;68.50
44111;DHT22;29774;52.664;5.074;2023-05-20T06:50:13;15.30;68.70
44111;DHT22;29774;52.664;5.074;2023-05-20T06:52:39;15.20;69.40
44111;DHT22;29774;52.664;5.074;2023-05-20T06:55:05;15.20;69.60
44111;DHT22;29774;52.664;5.074;2023-05-20T06:57:30;15.10;69.50
44111;DHT22;29774;52.664;5.074;2023-05-20T06:59:56;15.00;70.00
44111;DHT22;29774;52.664;5.074;2023-05-20T07:02:22;15.00;70.10
44111;DHT22;29774;52.664;5.074;2023-05-20T07:04:48;15.10;70.50
44111;DHT22;29774;52.664;5.074;2023-05-20T07:07:13;15.50;69.70
44111;DHT22;29774;52.664;5.074;2023-05-20T07:09:39;15.80;67.60
44111;DHT22;29774;52.664;5.074;2023-05-20T07:12:05;16.10;66.60
44111;DHT22;29774;52.664;5.074;2023-05-20T07:14:31;16.20;65.50
44111;DHT22;29774;52.664;5.074;2023-05-20T07:16:57;16.30;65.10
44111;DHT22;29774;52.664;5.074;2023-05-20T07:19:22;16.50;65.00
44111;DHT22;29774;52.664;5.074;2023-05-20T07:21:48;16.70;63.80
44111;DHT22;29774;52.664;5.074;2023-05-20T07:24:17;16.80;63.10
44111;DHT22;29774;52.664;5.074;2023-05-20T07:26:43;16.70;63.40
44111;DHT22;29774;52.664;5.074;2023-05-20T07:29:09;16.80;63.70
44111;DHT22;29774;52.664;5.074;2023-05-20T07:31:34;16.70;63.40
44111;DHT22;29774;52.664;5.074;2023-05-20T07:34:00;16.50;63.30
44111;DHT22;29774;52.664;5.074;2023-05-20T07:36:27;16.40;63.10
44111;DHT22;29774;52.664;5.074;2023-05-20T07:38:53;16.30;63.90
44111;DHT22;29774;52.664;5.074;2023-05-20T07:41:18;16.30;64.00
44111;DHT22;29774;52.664;5.074;2023-05-20T07:43:44;16.20;64.60
44111;DHT22;29774;52.664;5.074;2023-05-20T07:46:10;16.10;64.70
44111;DHT22;29774;52.664;5.074;2023-05-20T07:48:36;16.10;64.50
44111;DHT22;29774;52.664;5.074;2023-05-20T07:51:01;16.10;64.60
44111;DHT22;29774;52.664;5.074;2023-05-20T07:53:27;16.20;64.90
44111;DHT22;29774;52.664;5.074;2023-05-20T07:55:53;16.30;64.00
44111;DHT22;29774;52.664;5.074;2023-05-20T07:58:18;16.20;63.00
44111;DHT22;29774;52.664;5.074;2023-05-20T08:00:44;16.10;63.20
44111;DHT22;29774;52.664;5.074;2023-05-20T08:03:09;16.30;63.50
44111;DHT22;29774;52.664;5.074;2023-05-20T08:05:36;16.60;62.80
44111;DHT22;29774;52.664;5.074;2023-05-20T08:08:03;17.00;62.60
44111;DHT22;29774;52.664;5.074;2023-05-20T08:10:29;17.30;61.00
44111;DHT22;29774;52.664;5.074;2023-05-20T08:12:55;17.70;60.10
44111;DHT22;29774;52.664;5.074;2023-05-20T08:15:20;17.90;59.70
44111;DHT22;29774;52.664;5.074;2023-05-20T08:17:46;17.90;58.10
44111;DHT22;29774;52.664;5.074;2023-05-20T08:20:12;18.10;57.70
44111;DHT22;29774;52.664;5.074;2023-05-20T08:22:38;18.50;56.40
44111;DHT22;29774;52.664;5.074;2023-05-20T08:25:06;18.70;55.70
44111;DHT22;29774;52.664;5.074;2023-05-20T08:27:32;19.00;54.60
44111;DHT22;29774;52.664;5.074;2023-05-20T08:29:58;18.70;54.90
44111;DHT22;29774;52.664;5.074;2023-05-20T08:32:23;19.00;54.50
44111;DHT22;29774;52.664;5.074;2023-05-20T08:34:49;19.30;54.50
44111;DHT22;29774;52.664;5.074;2023-05-20T08:37:15;19.30;53.80
44111;DHT22;29774;52.664;5.074;2023-05-20T08:39:41;19.50;53.40
44111;DHT22;29774;52.664;5.074;2023-05-20T08:42:08;19.60;52.40
44111;DHT22;29774;52.664;5.074;2023-05-20T08:44:36;19.50;52.80
44111;DHT22;29774;52.664;5.074;2023-05-20T08:47:02;19.90;51.70
44111;DHT22;29774;52.664;5.074;2023-05-20T08:49:30;20.20;51.30
44111;DHT22;29774;52.664;5.074;2023-05-20T08:51:57;20.20;51.20
44111;DHT22;29774;52.664;5.074;2023-05-20T08:54:24;20.20;50.30
44111;DHT22;29774;52.664;5.074;2023-05-20T08:56:51;19.70;51.10
44111;DHT22;29774;52.664;5.074;2023-05-20T08:59:18;19.90;50.70
44111;DHT22;29774;52.664;5.074;2023-05-20T09:01:44;19.90;51.40
44111;DHT22;29774;52.664;5.074;2023-05-20T09:04:09;20.00;52.40
44111;DHT22;29774;52.664;5.074;2023-05-20T09:06:42;19.80;51.40
44111;DHT22;29774;52.664;5.074;2023-05-20T09:09:13;19.60;53.00
44111;DHT22;29774;52.664;5.074;2023-05-20T09:11:39;19.70;52.50
44111;DHT22;29774;52.664;5.074;2023-05-20T09:14:06;19.70;52.20
44111;DHT22;29774;52.664;5.074;2023-05-20T09:16:32;19.60;52.20
44111;DHT22;29774;52.664;5.074;2023-05-20T09:18:57;19.80;51.40
44111;DHT22;29774;52.664;5.074;2023-05-20T09:21:26;19.90;50.30
44111;DHT22;29774;52.664;5.074;2023-05-20T09:23:52;19.70;50.60
44111;DHT22;29774;52.664;5.074;2023-05-20T09:26:19;19.70;50.10
44111;DHT22;29774;52.664;5.074;2023-05-20T09:28:45;19.80;49.90
44111;DHT22;29774;52.664;5.074;2023-05-20T09:31:13;19.70;49.70
44111;DHT22;29774;52.664;5.074;2023-05-20T09:33:39;19.70;50.20
44111;DHT22;29774;52.664;5.074;2023-05-20T09:36:09;20.20;49.60
44111;DHT22;29774;52.664;5.074;2023-05-20T09:38:38;20.40;49.10
44111;DHT22;29774;52.664;5.074;2023-05-20T09:41:10;20.80;47.70
44111;DHT22;29774;52.664;5.074;2023-05-20T09:43:40;21.00;46.60
44111;DHT22;29774;52.664;5.074;2023-05-20T09:46:06;21.20;45.40
44111;DHT22;29774;52.664;5.074;2023-05-20T09:48:34;20.80;46.40
44111;DHT22;29774;52.664;5.074;2023-05-20T09:51:00;20.40;46.90
44111;DHT22;29774;52.664;5.074;2023-05-20T09:53:27;20.40;47.80
44111;DHT22;29774;52.664;5.074;2023-05-20T09:55:54;20.20;47.60
44111;DHT22;29774;52.664;5.074;2023-05-20T09:58:20;20.60;47.20
44111;DHT22;29774;52.664;5.074;2023-05-20T10:00:46;21.10;45.60
44111;DHT22;29774;52.664;5.074;2023-05-20T10:03:12;21.10;44.80
44111;DHT22;29774;52.664;5.074;2023-05-20T10:05:47;21.50;44.40
44111;DHT22;29774;52.664;5.074;2023-05-20T10:08:36;21.50;43.70
44111;DHT22;29774;52.664;5.074;2023-05-20T10:16:55;21.20;44.10
44111;DHT22;29774;52.664;5.074;2023-05-20T10:19:27;21.70;42.50
44111;DHT22;29774;52.664;5.074;2023-05-20T10:22:05;21.70;42.70
44111;DHT22;29774;52.664;5.074;2023-05-20T10:24:38;21.40;43.40
44111;DHT22;29774;52.664;5.074;2023-05-20T10:27:12;21.50;42.50
44111;DHT22;29774;52.664;5.074;2023-05-20T10:32:28;21.20;43.40
44111;DHT22;29774;52.664;5.074;2023-05-20T10:34:59;21.60;42.60
44111;DHT22;29774;52.664;5.074;2023-05-20T10:37:30;21.70;41.90
44111;DHT22;29774;52.664;5.074;2023-05-20T10:40:05;21.60;43.20
44111;DHT22;29774;52.664;5.074;2023-05-20T10:42:31;21.50;42.70
44111;DHT22;29774;52.664;5.074;2023-05-20T10:44:57;21.30;43.30
44111;DHT22;29774;52.664;5.074;2023-05-20T10:47:22;21.80;42.10
44111;DHT22;29774;52.664;5.074;2023-05-20T10:49:48;22.40;40.90
44111;DHT22;29774;52.664;5.074;2023-05-20T10:52:13;22.60;40.30
44111;DHT22;29774;52.664;5.074;2023-05-20T10:57:20;22.50;40.10
44111;DHT22;29774;52.664;5.074;2023-05-20T10:59:46;22.70;39.40
44111;DHT22;29774;52.664;5.074;2023-05-20T11:02:14;22.40;39.80
44111;DHT22;29774;52.664;5.074;2023-05-20T11:04:44;22.30;40.90
44111;DHT22;29774;52.664;5.074;2023-05-20T11:07:10;22.20;41.20
44111;DHT22;29774;52.664;5.074;2023-05-20T11:09:36;22.40;40.20
44111;DHT22;29774;52.664;5.074;2023-05-20T11:12:02;22.40;40.30
44111;DHT22;29774;52.664;5.074;2023-05-20T11:14:28;22.20;40.30
44111;DHT22;29774;52.664;5.074;2023-05-20T11:16:57;22.20;40.40
44111;DHT22;29774;52.664;5.074;2023-05-20T11:19:24;22.30;40.30
44111;DHT22;29774;52.664;5.074;2023-05-20T11:21:51;22.80;39.30
44111;DHT22;29774;52.664;5.074;2023-05-20T11:24:25;22.80;39.30
44111;DHT22;29774;52.664;5.074;2023-05-20T11:26:52;22.50;39.80
44111;DHT22;29774;52.664;5.074;2023-05-20T11:29:18;22.50;39.30
44111;DHT22;29774;52.664;5.074;2023-05-20T11:31:44;22.70;38.90
44111;DHT22;29774;52.664;5.074;2023-05-20T11:34:10;22.80;38.70
44111;DHT22;29774;52.664;5.074;2023-05-20T11:36:42;22.70;38.80
44111;DHT22;29774;52.664;5.074;2023-05-20T11:39:09;22.80;38.30
44111;DHT22;29774;52.664;5.074;2023-05-20T11:41:35;22.70;39.30
44111;DHT22;29774;52.664;5.074;2023-05-20T11:44:01;22.70;39.40
44111;DHT22;29774;52.664;5.074;2023-05-20T11:46:27;22.50;39.50
44111;DHT22;29774;52.664;5.074;2023-05-20T11:48:53;22.60;40.00
44111;DHT22;29774;52.664;5.074;2023-05-20T11:51:29;22.60;40.40
44111;DHT22;29774;52.664;5.074;2023-05-20T11:54:02;22.60;39.60
44111;DHT22;29774;52.664;5.074;2023-05-20T11:56:32;22.80;38.70
44111;DHT22;29774;52.664;5.074;2023-05-20T11:59:02;22.90;38.20
44111;DHT22;29774;52.664;5.074;2023-05-20T12:01:33;22.70;38.80
44111;DHT22;29774;52.664;5.074;2023-05-20T12:04:05;22.20;39.80
44111;DHT22;29774;52.664;5.074;2023-05-20T12:06:31;22.60;39.00
44111;DHT22;29774;52.664;5.074;2023-05-20T12:09:00;22.60;39.70
44111;DHT22;29774;52.664;5.074;2023-05-20T12:11:35;23.10;38.40
44111;DHT22;29774;52.664;5.074;2023-05-20T12:14:02;23.10;37.50
44111;DHT22;29774;52.664;5.074;2023-05-20T12:16:32;22.70;39.10
44111;DHT22;29774;52.664;5.074;2023-05-20T12:18:58;22.40;38.80
44111;DHT22;29774;52.664;5.074;2023-05-20T12:21:24;22.40;39.70
44111;DHT22;29774;52.664;5.074;2023-05-20T12:23:50;22.70;39.10
44111;DHT22;29774;52.664;5.074;2023-05-20T12:26:24;22.20;40.00
44111;DHT22;29774;52.664;5.074;2023-05-20T12:28:51;21.80;39.90
44111;DHT22;29774;52.664;5.074;2023-05-20T12:31:16;22.00;40.40
44111;DHT22;29774;52.664;5.074;2023-05-20T12:33:42;22.40;40.90
44111;DHT22;29774;52.664;5.074;2023-05-20T12:36:08;22.60;41.60
44111;DHT22;29774;52.664;5.074;2023-05-20T12:38:33;22.20;41.30
44111;DHT22;29774;52.664;5.074;2023-05-20T12:40:59;22.20;42.40
44111;DHT22;29774;52.664;5.074;2023-05-20T12:43:25;22.20;42.90
44111;DHT22;29774;52.664;5.074;2023-05-20T12:45:51;21.90;44.10
44111;DHT22;29774;52.664;5.074;2023-05-20T12:48:16;21.90;44.30
44111;DHT22;29774;52.664;5.074;2023-05-20T12:50:42;21.90;44.50
44111;DHT22;29774;52.664;5.074;2023-05-20T12:53:08;22.20;41.80
44111;DHT22;29774;52.664;5.074;2023-05-20T12:55:34;22.50;43.10
44111;DHT22;29774;52.664;5.074;2023-05-20T12:57:59;22.20;44.00
44111;DHT22;29774;52.664;5.074;2023-05-20T13:00:25;21.90;44.20
44111;DHT22;29774;52.664;5.074;2023-05-20T13:02:51;22.20;44.70
44111;DHT22;29774;52.664;5.074;2023-05-20T13:05:17;22.70;43.60
44111;DHT22;29774;52.664;5.074;2023-05-20T13:07:43;23.00;42.50
44111;DHT22;29774;52.664;5.074;2023-05-20T13:10:09;23.10;42.90
44111;DHT22;29774;52.664;5.074;2023-05-20T13:12:36;22.80;42.90
44111;DHT22;29774;52.664;5.074;2023-05-20T13:15:02;22.20;44.30
44111;DHT22;29774;52.664;5.074;2023-05-20T13:17:28;21.70;45.70
44111;DHT22;29774;52.664;5.074;2023-05-20T13:19:54;21.20;46.50
44111;DHT22;29774;52.664;5.074;2023-05-20T13:22:20;21.10;46.90
44111;DHT22;29774;52.664;5.074;2023-05-20T13:24:46;21.00;47.80
44111;DHT22;29774;52.664;5.074;2023-05-20T13:27:11;20.70;47.90
44111;DHT22;29774;52.664;5.074;2023-05-20T13:29:37;20.50;48.50
44111;DHT22;29774;52.664;5.074;2023-05-20T13:32:03;20.40;49.50
44111;DHT22;29774;52.664;5.074;2023-05-20T13:34:29;20.20;49.10
44111;DHT22;29774;52.664;5.074;2023-05-20T13:36:54;20.20;49.60
44111;DHT22;29774;52.664;5.074;2023-05-20T13:39:20;20.40;50.20
44111;DHT22;29774;52.664;5.074;2023-05-20T13:41:46;20.50;49.00
44111;DHT22;29774;52.664;5.074;2023-05-20T13:44:12;20.60;49.00
44111;DHT22;29774;52.664;5.074;2023-05-20T13:46:37;20.30;49.60
44111;DHT22;29774;52.664;5.074;2023-05-20T13:49:03;20.30;50.60
44111;DHT22;29774;52.664;5.074;2023-05-20T13:51:29;20.50;50.70
44111;DHT22;29774;52.664;5.074;2023-05-20T13:53:55;20.70;50.10
44111;DHT22;29774;52.664;5.074;2023-05-20T13:56:21;20.70;49.90
44111;DHT22;29774;52.664;5.074;2023-05-20T13:58:47;20.50;50.00
44111;DHT22;29774;52.664;5.074;2023-05-20T14:01:13;20.10;51.00
44111;DHT22;29774;52.664;5.074;2023-05-20T14:03:40;19.70;51.50
44111;DHT22;29774;52.664;5.074;2023-05-20T14:06:06;19.90;51.70
44111;DHT22;29774;52.664;5.074;2023-05-20T14:08:31;19.90;51.10
44111;DHT22;29774;52.664;5.074;2023-05-20T14:10:57;20.10;51.30
44111;DHT22;29774;52.664;5.074;2023-05-20T14:13:23;20.20;52.20
44111;DHT22;29774;52.664;5.074;2023-05-20T14:15:50;20.20;53.00
44111;DHT22;29774;52.664;5.074;2023-05-20T14:18:17;20.20;53.30
44111;DHT22;29774;52.664;5.074;2023-05-20T14:20:43;19.90;53.70
44111;DHT22;29774;52.664;5.074;2023-05-20T14:23:09;19.80;54.20
44111;DHT22;29774;52.664;5.074;2023-05-20T14:25:35;19.70;55.00
44111;DHT22;29774;52.664;5.074;2023-05-20T14:28:01;19.60;55.30
44111;DHT22;29774;52.664;5.074;2023-05-20T14:30:26;19.50;56.20
44111;DHT22;29774;52.664;5.074;2023-05-20T14:32:52;19.40;56.50
44111;DHT22;29774;52.664;5.074;2023-05-20T14:35:17;19.40;57.30
44111;DHT22;29774;52.664;5.074;2023-05-20T14:37:43;19.50;58.00
44111;DHT22;29774;52.664;5.074;2023-05-20T14:40:09;19.40;57.80
44111;DHT22;29774;52.664;5.074;2023-05-20T14:42:36;19.40;58.90
44111;DHT22;29774;52.664;5.074;2023-05-20T14:45:02;19.30;60.30
44111;DHT22;29774;52.664;5.074;2023-05-20T14:47:28;19.30;60.80
44111;DHT22;29774;52.664;5.074;2023-05-20T14:49:54;19.20;61.10
44111;DHT22;29774;52.664;5.074;2023-05-20T14:52:20;19.20;61.40
44111;DHT22;29774;52.664;5.074;2023-05-20T14:54:45;19.10;61.30
44111;DHT22;29774;52.664;5.074;2023-05-20T14:57:11;19.10;61.40
44111;DHT22;29774;52.664;5.074;2023-05-20T14:59:37;19.10;61.60
44111;DHT22;29774;52.664;5.074;2023-05-20T15:02:03;19.10;60.20
44111;DHT22;29774;52.664;5.074;2023-05-20T15:04:30;19.00;60.20
44111;DHT22;29774;52.664;5.074;2023-05-20T15:06:55;19.10;59.20
44111;DHT22;29774;52.664;5.074;2023-05-20T15:09:21;18.90;60.40
44111;DHT22;29774;52.664;5.074;2023-05-20T15:11:47;18.90;61.10
44111;DHT22;29774;52.664;5.074;2023-05-20T15:14:12;18.70;61.00
44111;DHT22;29774;52.664;5.074;2023-05-20T15:16:38;18.70;61.50
44111;DHT22;29774;52.664;5.074;2023-05-20T15:19:04;18.70;61.30
44111;DHT22;29774;52.664;5.074;2023-05-20T15:21:29;18.60;61.30
44111;DHT22;29774;52.664;5.074;2023-05-20T15:23:56;18.70;61.70
44111;DHT22;29774;52.664;5.074;2023-05-20T15:26:22;18.70;61.30
44111;DHT22;29774;52.664;5.074;2023-05-20T15:28:48;18.70;60.90
44111;DHT22;29774;52.664;5.074;2023-05-20T15:31:13;18.70;61.20
44111;DHT22;29774;52.664;5.074;2023-05-20T15:33:39;18.60;61.10
44111;DHT22;29774;52.664;5.074;2023-05-20T15:36:05;18.70;61.00